Time;durP1;ratioP1;P1;durP2;ratioP2;P2;SDS_P1;SDS_P2;PMS_P1;PMS_P2;Temp;Humidity;BMP_temperature;BMP_pressure;BME280_temperature;BME280_humidity;BME280_pressure;Samples;Min_cycle;Max_cycle;Signal;HPM_P1;HPM_P2
2022/07/05 00:01:19;;;;;;;2.77;2.57;;;17.30;99.90;;;;;;4990056;28;20662;-80
2022/07/05 00:03:47;;;;;;;3.83;2.20;;;17.30;99.90;;;;;;4989226;28;20641;-80
2022/07/05 00:06:14;;;;;;;4.30;3.70;;;17.20;99.90;;;;;;4988816;28;20639;-80
2022/07/05 00:08:41;;;;;;;2.50;2.30;;;17.20;99.90;;;;;;4989368;28;21255;-80
2022/07/05 00:11:07;;;;;;;3.57;2.43;;;17.20;99.90;;;;;;4989090;28;20656;-80
2022/07/05 00:13:34;;;;;;;3.03;2.27;;;17.30;99.90;;;;;;4988378;28;20644;-80
2022/07/05 00:16:01;;;;;;;2.60;2.40;;;17.20;99.90;;;;;;4989046;28;21190;-80
2022/07/05 00:18:28;;;;;;;2.23;2.13;;;17.20;99.90;;;;;;4988573;28;20635;-80
2022/07/05 00:20:56;;;;;;;3.20;2.03;;;17.20;99.90;;;;;;4985652;28;21117;-80
2022/07/05 00:23:23;;;;;;;3.00;1.77;;;17.10;99.90;;;;;;4986743;28;20631;-80
2022/07/05 00:25:50;;;;;;;2.30;2.10;;;17.10;99.90;;;;;;4989058;28;20994;-80
2022/07/05 00:28:16;;;;;;;4.43;2.27;;;17.10;99.90;;;;;;4987586;28;21476;-81
2022/07/05 00:30:43;;;;;;;2.00;1.90;;;17.10;99.90;;;;;;4988322;28;21009;-80
2022/07/05 00:33:11;;;;;;;2.83;2.00;;;17.10;99.90;;;;;;4989203;28;20639;-80
2022/07/05 00:35:38;;;;;;;3.60;2.40;;;17.00;99.90;;;;;;4988119;28;20621;-80
2022/07/05 00:38:06;;;;;;;2.83;2.63;;;16.90;99.90;;;;;;4986028;28;20655;-81
2022/07/05 00:40:33;;;;;;;2.23;2.13;;;16.90;99.90;;;;;;4970892;28;20669;-81
2022/07/05 00:43:00;;;;;;;3.00;2.10;;;16.80;99.90;;;;;;4988417;28;20629;-80
2022/07/05 00:45:27;;;;;;;2.10;2.00;;;16.80;99.90;;;;;;4984536;28;20633;-80
2022/07/05 00:47:54;;;;;;;2.40;2.30;;;16.80;99.90;;;;;;4987404;28;20775;-80
2022/07/05 00:50:21;;;;;;;2.50;2.30;;;16.80;99.90;;;;;;4988310;28;20651;-80
2022/07/05 00:52:47;;;;;;;5.87;2.30;;;16.80;99.90;;;;;;4987673;28;20641;-80
2022/07/05 00:55:17;;;;;;;2.70;2.03;;;16.70;99.90;;;;;;4988604;28;21094;-80
2022/07/05 00:57:44;;;;;;;2.30;1.97;;;16.70;99.90;;;;;;4987904;28;20651;-80
2022/07/05 01:00:12;;;;;;;2.67;2.47;;;16.70;99.90;;;;;;4988254;28;20644;-80
2022/07/05 01:02:38;;;;;;;2.80;2.27;;;16.70;99.90;;;;;;4988436;28;20649;-80
2022/07/05 01:05:06;;;;;;;6.53;2.87;;;16.70;99.90;;;;;;4988224;28;20643;-80
2022/07/05 01:07:33;;;;;;;4.10;2.20;;;16.60;99.90;;;;;;4984901;28;20664;-80
2022/07/05 01:09:59;;;;;;;3.50;2.50;;;16.60;99.90;;;;;;4988148;28;20667;-80
2022/07/05 01:12:28;;;;;;;3.20;2.00;;;16.50;99.90;;;;;;4984724;28;20641;-80
2022/07/05 01:14:55;;;;;;;3.20;2.30;;;16.50;99.90;;;;;;4985989;28;20889;-80
2022/07/05 01:17:23;;;;;;;4.57;3.03;;;16.50;99.90;;;;;;4987168;28;20667;-81
2022/07/05 01:19:50;;;;;;;3.43;2.57;;;16.50;99.90;;;;;;4986837;28;20659;-81
2022/07/05 01:22:19;;;;;;;2.50;2.30;;;16.50;99.90;;;;;;4987000;28;20663;-81
2022/07/05 01:24:48;;;;;;;5.10;2.90;;;16.40;99.90;;;;;;4987646;28;20639;-80
2022/07/05 01:27:15;;;;;;;3.90;2.77;;;16.40;99.90;;;;;;4987336;28;21124;-80
2022/07/05 01:29:42;;;;;;;2.27;2.07;;;16.40;99.90;;;;;;4987988;28;20665;-80
2022/07/05 01:32:09;;;;;;;2.67;2.47;;;16.40;99.90;;;;;;4986119;28;20720;-80
2022/07/05 01:34:38;;;;;;;2.67;2.50;;;16.30;99.90;;;;;;4987067;28;21055;-80
2022/07/05 01:37:06;;;;;;;3.50;2.80;;;16.20;99.90;;;;;;4987651;28;21502;-81
2022/07/05 01:39:33;;;;;;;3.07;2.37;;;16.20;99.90;;;;;;4986758;28;20656;-80
2022/07/05 01:42:02;;;;;;;3.10;2.80;;;16.10;99.90;;;;;;4985539;28;20629;-80
2022/07/05 01:44:30;;;;;;;6.30;3.73;;;16.10;99.90;;;;;;4984888;28;20668;-80
2022/07/05 01:47:03;;;;;;;2.73;2.53;;;16.10;99.90;;;;;;4987147;28;21112;-81
2022/07/05 01:49:35;;;;;;;2.70;2.50;;;16.10;99.90;;;;;;4984848;28;21151;-80
2022/07/05 01:52:08;;;;;;;2.40;2.20;;;16.10;99.90;;;;;;4987509;28;20688;-80
2022/07/05 01:54:35;;;;;;;2.70;2.40;;;16.10;99.90;;;;;;4970452;28;20748;-80
2022/07/05 01:57:05;;;;;;;3.40;2.97;;;16.10;99.90;;;;;;4986391;28;20624;-80
2022/07/05 01:59:34;;;;;;;2.80;2.60;;;16.10;99.90;;;;;;4987295;28;21057;-81
2022/07/05 02:02:01;;;;;;;4.20;3.10;;;16.00;99.90;;;;;;4988016;28;20629;-80
2022/07/05 02:04:29;;;;;;;3.30;3.10;;;16.10;99.90;;;;;;4986220;28;21273;-80
2022/07/05 02:06:56;;;;;;;2.73;2.53;;;16.00;99.90;;;;;;4991432;28;20636;-80
2022/07/05 02:09:23;;;;;;;2.87;2.67;;;15.90;99.90;;;;;;4987142;28;20683;-80
2022/07/05 02:11:50;;;;;;;3.10;2.80;;;15.90;99.90;;;;;;4987119;28;20651;-80
2022/07/05 02:14:19;;;;;;;3.07;2.43;;;15.90;99.90;;;;;;4985997;28;20627;-80
2022/07/05 02:16:45;;;;;;;3.97;3.00;;;15.90;99.90;;;;;;4987095;28;21188;-80
2022/07/05 02:19:12;;;;;;;3.60;2.90;;;15.90;99.90;;;;;;4986242;28;20620;-80
2022/07/05 02:21:39;;;;;;;2.93;2.73;;;15.80;99.90;;;;;;4983188;28;20641;-80
2022/07/05 02:24:08;;;;;;;4.20;3.50;;;15.80;99.90;;;;;;4984460;28;21044;-80
2022/07/05 02:26:34;;;;;;;3.17;2.97;;;15.80;99.90;;;;;;4985780;28;20629;-80
2022/07/05 02:29:03;;;;;;;3.67;2.67;;;15.70;99.90;;;;;;4986196;28;20661;-80
2022/07/05 02:31:31;;;;;;;3.73;3.03;;;15.70;99.90;;;;;;4986573;28;20653;-80
2022/07/05 02:33:58;;;;;;;3.60;3.30;;;15.70;99.90;;;;;;4985043;28;20659;-80
2022/07/05 02:36:25;;;;;;;3.40;3.20;;;15.60;99.90;;;;;;4986982;28;20676;-80
2022/07/05 02:38:53;;;;;;;4.10;3.17;;;15.60;99.90;;;;;;4984709;28;21221;-80
2022/07/05 02:41:20;;;;;;;3.30;3.00;;;15.60;99.90;;;;;;4985289;28;20651;-80
2022/07/05 02:43:46;;;;;;;3.70;3.40;;;15.50;99.90;;;;;;4985432;28;20994;-80
2022/07/05 02:46:13;;;;;;;4.70;3.97;;;15.40;99.90;;;;;;4981357;28;20629;-80
2022/07/05 02:48:41;;;;;;;4.53;3.20;;;15.50;99.90;;;;;;4986730;28;20668;-80
2022/07/05 02:51:08;;;;;;;3.80;3.47;;;15.40;99.90;;;;;;4986902;28;21022;-80
2022/07/05 02:53:35;;;;;;;3.23;3.00;;;15.40;99.90;;;;;;4987042;28;20643;-80
2022/07/05 02:56:02;;;;;;;4.20;3.80;;;15.40;99.90;;;;;;4986889;28;20624;-80
2022/07/05 02:58:30;;;;;;;5.07;4.57;;;15.30;99.90;;;;;;4986166;28;20624;-80
2022/07/05 03:00:56;;;;;;;4.60;3.60;;;15.30;99.90;;;;;;4985354;28;20656;-81
2022/07/05 03:03:23;;;;;;;4.07;3.73;;;15.30;99.90;;;;;;4986375;28;20648;-80
2022/07/05 03:05:51;;;;;;;5.60;3.90;;;15.20;99.90;;;;;;4986597;28;20644;-80
2022/07/05 03:08:18;;;;;;;4.13;3.70;;;15.20;99.90;;;;;;4985310;28;20676;-80
2022/07/05 03:10:45;;;;;;;4.30;3.73;;;15.20;99.90;;;;;;4986900;28;20660;-80
2022/07/05 03:13:12;;;;;;;4.50;4.20;;;15.20;99.90;;;;;;4984244;28;20630;-81
2022/07/05 03:15:39;;;;;;;7.90;5.03;;;15.10;99.90;;;;;;4986666;28;20640;-80
2022/07/05 03:18:05;;;;;;;4.80;4.47;;;15.20;99.90;;;;;;4985761;28;20637;-80
2022/07/05 03:20:32;;;;;;;4.90;4.50;;;15.10;99.90;;;;;;4986070;28;20657;-80
2022/07/05 03:23:00;;;;;;;5.53;4.27;;;15.10;99.90;;;;;;4985326;28;20623;-80
2022/07/05 03:25:27;;;;;;;5.00;4.13;;;15.10;99.90;;;;;;4983362;28;20633;-80
2022/07/05 03:27:54;;;;;;;4.47;4.17;;;15.10;99.90;;;;;;4984999;28;20646;-80
2022/07/05 03:30:21;;;;;;;5.63;4.33;;;15.00;99.90;;;;;;4986461;28;20665;-80
2022/07/05 03:32:48;;;;;;;4.03;3.73;;;15.00;99.90;;;;;;4986001;28;20652;-80
2022/07/05 03:35:14;;;;;;;4.13;3.73;;;15.00;99.90;;;;;;4982024;28;20632;-80
2022/07/05 03:37:41;;;;;;;6.40;4.23;;;14.90;99.90;;;;;;4982647;28;20664;-80
2022/07/05 03:40:10;;;;;;;4.77;4.03;;;14.90;99.90;;;;;;4985876;28;20652;-80
2022/07/05 03:42:38;;;;;;;3.80;3.53;;;14.80;99.90;;;;;;4985905;28;20716;-81
2022/07/05 03:45:06;;;;;;;5.00;4.53;;;14.90;99.90;;;;;;4987599;28;20655;-80
2022/07/05 03:47:33;;;;;;;4.47;4.07;;;14.80;99.90;;;;;;4988520;28;20636;-78
2022/07/05 03:49:59;;;;;;;4.63;4.33;;;14.90;99.90;;;;;;4989121;28;20687;-80
2022/07/05 03:52:26;;;;;;;4.47;4.17;;;15.00;99.90;;;;;;4986169;28;20629;-80
2022/07/05 03:54:53;;;;;;;4.60;4.23;;;15.00;99.90;;;;;;4989415;28;20633;-80
2022/07/05 03:57:22;;;;;;;4.80;3.87;;;15.00;99.90;;;;;;4988211;28;21404;-80
2022/07/05 03:59:49;;;;;;;3.97;3.63;;;14.90;99.90;;;;;;4986351;28;21277;-80
2022/07/05 04:02:16;;;;;;;4.40;4.10;;;15.00;99.90;;;;;;4985894;28;20676;-81
2022/07/05 04:04:42;;;;;;;6.00;5.50;;;14.90;99.90;;;;;;4989453;28;20640;-81
2022/07/05 04:07:09;;;;;;;4.60;4.17;;;15.00;99.90;;;;;;4989237;28;20635;-81
2022/07/05 04:09:36;;;;;;;4.67;4.10;;;15.00;99.90;;;;;;4988771;28;21493;-81
2022/07/05 04:12:04;;;;;;;5.27;4.80;;;15.00;99.90;;;;;;4988997;28;20750;-81
2022/07/05 04:14:33;;;;;;;5.50;5.00;;;15.10;99.90;;;;;;4984544;28;20636;-81
2022/07/05 04:16:59;;;;;;;4.57;4.17;;;15.10;99.90;;;;;;4988004;28;20632;-81
2022/07/05 04:19:26;;;;;;;4.30;3.90;;;15.20;99.90;;;;;;4988134;28;20639;-81
2022/07/05 04:21:53;;;;;;;6.80;4.30;;;15.20;99.90;;;;;;4988899;28;20643;-81
2022/07/05 04:24:20;;;;;;;4.83;4.17;;;15.20;99.90;;;;;;4989072;28;21168;-81
2022/07/05 04:26:46;;;;;;;4.50;3.87;;;15.20;99.90;;;;;;4988533;28;20636;-81
2022/07/05 04:29:13;;;;;;;4.80;4.50;;;15.20;99.90;;;;;;4988100;28;21078;-81
2022/07/05 04:31:41;;;;;;;4.50;4.27;;;15.30;99.90;;;;;;4988207;28;20647;-81
2022/07/05 04:34:10;;;;;;;4.77;4.17;;;15.30;99.90;;;;;;4987836;28;20647;-81
2022/07/05 04:36:40;;;;;;;5.77;4.50;;;15.30;99.90;;;;;;4987578;28;20636;-80
2022/07/05 04:39:07;;;;;;;4.60;3.93;;;15.40;99.90;;;;;;4987083;28;20641;-80
2022/07/05 04:41:34;;;;;;;5.13;4.70;;;15.40;99.90;;;;;;4986833;28;21620;-81
2022/07/05 04:44:01;;;;;;;4.10;3.70;;;15.50;99.90;;;;;;4987451;28;20728;-80
2022/07/05 04:46:28;;;;;;;4.97;4.67;;;15.50;99.90;;;;;;4987016;28;20640;-80
2022/07/05 04:48:57;;;;;;;4.87;4.43;;;15.60;99.90;;;;;;4987927;28;21081;-79
2022/07/05 04:51:23;;;;;;;5.30;4.50;;;15.60;99.90;;;;;;4987978;28;20674;-81
2022/07/05 04:53:50;;;;;;;6.80;4.40;;;15.70;99.90;;;;;;4984912;28;20633;-81
2022/07/05 04:56:17;;;;;;;4.57;4.27;;;15.80;99.90;;;;;;4985893;28;20647;-80
2022/07/05 04:58:44;;;;;;;4.87;4.53;;;15.90;99.90;;;;;;4987836;28;20629;-80
2022/07/05 05:01:10;;;;;;;5.23;4.50;;;16.00;99.90;;;;;;4987977;28;20691;-80
2022/07/05 05:03:37;;;;;;;6.17;5.57;;;16.10;99.90;;;;;;4986115;28;20641;-80
2022/07/05 05:06:05;;;;;;;10.20;5.90;;;16.20;99.90;;;;;;4986889;28;20636;-81
2022/07/05 05:08:32;;;;;;;5.57;5.10;;;16.30;99.90;;;;;;4988056;28;20644;-80
2022/07/05 05:10:59;;;;;;;5.13;4.57;;;16.40;99.90;;;;;;4986830;28;21005;-81
2022/07/05 05:13:26;;;;;;;5.50;4.53;;;16.50;99.90;;;;;;4985306;28;20632;-81
2022/07/05 05:15:52;;;;;;;7.47;5.27;;;16.60;99.90;;;;;;4985452;28;20633;-80
2022/07/05 05:18:24;;;;;;;5.00;4.63;;;16.70;99.90;;;;;;4987935;28;20643;-81
2022/07/05 05:20:52;;;;;;;6.00;5.40;;;16.80;99.90;;;;;;4987567;28;21573;-80
2022/07/05 05:23:20;;;;;;;5.90;5.40;;;16.90;99.90;;;;;;4987824;28;20632;-80
2022/07/05 05:25:46;;;;;;;5.60;5.17;;;17.00;99.90;;;;;;4987828;28;20998;-81
2022/07/05 05:28:13;;;;;;;5.70;5.23;;;17.10;99.90;;;;;;4986311;28;20624;-80
2022/07/05 05:30:40;;;;;;;4.87;4.37;;;17.20;99.90;;;;;;4984885;28;21277;-80
2022/07/05 05:33:07;;;;;;;6.27;4.90;;;17.20;99.90;;;;;;4988039;28;20683;-80
2022/07/05 05:35:34;;;;;;;3.80;3.50;;;17.40;99.90;;;;;;4986875;28;20636;-81
2022/07/05 05:38:00;;;;;;;4.90;4.13;;;17.50;99.90;;;;;;4987371;28;20636;-80
2022/07/05 05:40:29;;;;;;;3.90;3.60;;;17.60;99.90;;;;;;4988389;28;20667;-80
2022/07/05 05:42:56;;;;;;;4.63;3.07;;;17.70;99.90;;;;;;4986502;28;20624;-80
2022/07/05 05:45:23;;;;;;;3.80;2.80;;;17.80;99.90;;;;;;4986670;28;20675;-81
2022/07/05 05:47:52;;;;;;;6.03;3.30;;;17.90;99.90;;;;;;4986930;28;20629;-81
2022/07/05 05:50:20;;;;;;;3.10;2.90;;;18.00;99.90;;;;;;4985471;28;20681;-81
2022/07/05 05:52:47;;;;;;;4.10;2.90;;;18.20;99.90;;;;;;4987280;28;20760;-80
2022/07/05 05:55:14;;;;;;;5.10;3.20;;;18.20;99.90;;;;;;4987287;28;20640;-80
2022/07/05 05:57:42;;;;;;;3.97;2.43;;;18.30;99.90;;;;;;4987043;28;20655;-80
2022/07/05 06:00:11;;;;;;;3.30;2.70;;;18.40;99.90;;;;;;4986024;28;21250;-80
2022/07/05 06:02:37;;;;;;;3.40;2.70;;;18.50;99.90;;;;;;4987178;28;20660;-81
2022/07/05 06:05:05;;;;;;;4.93;2.57;;;18.60;99.90;;;;;;4984029;28;20625;-80
2022/07/05 06:07:32;;;;;;;2.73;2.27;;;18.70;99.90;;;;;;4983755;28;21213;-80
2022/07/05 06:09:59;;;;;;;2.60;2.40;;;18.80;99.90;;;;;;4984140;28;20703;-80
2022/07/05 06:12:25;;;;;;;3.63;2.53;;;18.90;99.90;;;;;;4987338;28;20628;-80
2022/07/05 06:14:54;;;;;;;3.07;2.77;;;19.10;99.90;;;;;;4985019;28;21642;-80
2022/07/05 06:17:20;;;;;;;3.37;2.63;;;19.20;99.90;;;;;;4986014;28;20701;-80
2022/07/05 06:19:47;;;;;;;5.73;2.90;;;19.20;99.90;;;;;;4986226;28;20652;-81
2022/07/05 06:22:14;;;;;;;3.27;2.83;;;19.40;99.90;;;;;;4986186;28;21226;-80
2022/07/05 06:24:41;;;;;;;2.60;2.40;;;19.50;99.90;;;;;;4985268;28;21223;-80
2022/07/05 06:27:07;;;;;;;3.60;2.43;;;19.60;99.90;;;;;;4985097;28;20636;-81
2022/07/05 06:29:34;;;;;;;3.43;2.13;;;19.70;99.90;;;;;;4981369;28;20676;-81
2022/07/05 06:32:03;;;;;;;2.63;2.20;;;19.80;99.90;;;;;;4987049;28;20654;-80
2022/07/05 06:34:30;;;;;;;2.10;2.00;;;19.90;99.90;;;;;;4985423;28;20660;-80
2022/07/05 06:36:57;;;;;;;2.20;1.60;;;20.00;99.90;;;;;;4986457;28;20633;-81
2022/07/05 06:39:23;;;;;;;3.10;2.10;;;20.10;99.90;;;;;;4986968;28;20617;-80
2022/07/05 06:41:50;;;;;;;4.13;2.33;;;20.20;99.90;;;;;;4985692;28;20663;-81
2022/07/05 06:44:17;;;;;;;3.10;2.77;;;20.30;99.90;;;;;;4986029;28;20704;-80
2022/07/05 06:46:44;;;;;;;2.57;2.00;;;20.40;99.90;;;;;;4987085;28;20632;-80
2022/07/05 06:49:12;;;;;;;2.37;2.20;;;20.60;99.90;;;;;;4985659;28;20629;-81
2022/07/05 06:51:39;;;;;;;3.23;1.83;;;20.60;99.90;;;;;;4987133;28;20632;-80
2022/07/05 06:54:05;;;;;;;2.87;1.73;;;20.70;99.90;;;;;;4983540;28;20629;-81
2022/07/05 06:56:32;;;;;;;2.93;2.33;;;20.80;99.90;;;;;;4984627;28;20746;-81
2022/07/05 06:58:59;;;;;;;4.17;2.23;;;21.00;99.90;;;;;;4985174;28;20625;-81
2022/07/05 07:01:26;;;;;;;5.10;2.07;;;21.00;99.90;;;;;;4982383;28;20677;-80
2022/07/05 07:03:53;;;;;;;3.63;2.30;;;21.10;99.90;;;;;;4985531;28;20767;-81
2022/07/05 07:06:21;;;;;;;2.20;1.80;;;21.10;99.90;;;;;;4986307;28;20624;-81
2022/07/05 07:11:32;;;;;;;2.03;1.83;;;21.40;99.90;;;;;;4983188;28;20639;-81
2022/07/05 07:13:59;;;;;;;7.20;2.47;;;21.40;99.90;;;;;;4984595;28;20643;-81
2022/07/05 07:16:26;;;;;;;2.03;1.93;;;21.60;99.90;;;;;;4980184;28;20636;-81
2022/07/05 07:18:53;;;;;;;2.47;2.37;;;21.60;99.90;;;;;;4987183;28;20643;-81
2022/07/05 07:21:21;;;;;;;2.70;2.20;;;21.70;99.90;;;;;;4989440;28;20647;-81
2022/07/05 07:23:48;;;;;;;4.80;3.43;;;21.70;99.90;;;;;;4989537;28;20656;-80
2022/07/05 07:26:15;;;;;;;5.80;2.60;;;21.80;99.90;;;;;;4986642;28;20620;-81
2022/07/05 07:28:42;;;;;;;2.27;2.07;;;21.90;99.90;;;;;;4989085;28;20635;-81
2022/07/05 07:31:09;;;;;;;4.40;1.97;;;21.90;99.90;;;;;;4989617;28;20691;-81
2022/07/05 07:33:36;;;;;;;4.30;2.47;;;22.00;99.90;;;;;;4988642;28;20674;-80
2022/07/05 07:36:03;;;;;;;4.97;2.67;;;22.10;99.90;;;;;;4989382;28;20624;-81
2022/07/05 07:38:31;;;;;;;4.90;2.33;;;22.10;99.90;;;;;;4983696;28;20639;-81
2022/07/05 07:41:00;;;;;;;4.37;2.30;;;22.20;99.90;;;;;;4990127;28;20664;-81
2022/07/05 07:43:26;;;;;;;2.13;2.00;;;22.30;99.90;;;;;;4985971;28;20628;-80
2022/07/05 07:45:53;;;;;;;3.73;2.30;;;22.20;99.90;;;;;;4989943;28;20654;-81
2022/07/05 07:48:20;;;;;;;3.40;2.90;;;22.30;99.90;;;;;;4988893;28;20632;-80
2022/07/05 07:50:47;;;;;;;2.80;2.00;;;22.40;99.90;;;;;;4988085;28;20680;-81
2022/07/05 07:53:14;;;;;;;3.40;2.17;;;22.50;99.90;;;;;;4985638;28;20806;-81
2022/07/05 07:55:43;;;;;;;2.57;2.30;;;22.60;99.90;;;;;;4988787;28;20631;-81
2022/07/05 07:58:09;;;;;;;4.10;2.20;;;22.70;99.70;;;;;;4988513;28;20988;-81
2022/07/05 08:00:36;;;;;;;3.37;2.00;;;22.80;99.90;;;;;;4988895;28;20663;-80
2022/07/05 08:03:03;;;;;;;2.57;1.63;;;22.80;97.70;;;;;;4988157;28;20647;-81
2022/07/05 08:05:29;;;;;;;4.23;1.63;;;22.90;99.60;;;;;;4988606;28;20641;-81
2022/07/05 08:07:56;;;;;;;2.87;1.57;;;23.00;99.00;;;;;;4988141;28;20636;-81
2022/07/05 08:10:23;;;;;;;1.33;1.20;;;23.10;93.50;;;;;;4988378;28;21242;-81
2022/07/05 08:12:51;;;;;;;5.50;1.63;;;23.10;92.20;;;;;;4988829;28;20643;-81
2022/07/05 08:15:18;;;;;;;2.97;1.30;;;23.20;93.10;;;;;;4988182;28;20640;-81
2022/07/05 08:21:30;;;;;;;1.53;1.30;;;23.30;93.80;;;;;;4988403;28;20633;-81
2022/07/05 08:23:16;;;;;;;4.20;1.57;;;23.50;91.80;;;;;;4987136;28;20608;-81
2022/07/05 08:25:42;;;;;;;2.03;1.40;;;23.50;88.80;;;;;;4986282;28;20632;-80
2022/07/05 08:28:10;;;;;;;2.60;1.33;;;23.50;89.00;;;;;;4986325;28;20635;-81
2022/07/05 08:30:37;;;;;;;3.47;1.30;;;23.50;86.80;;;;;;4985985;28;21070;-80
2022/07/05 08:33:04;;;;;;;3.23;1.70;;;23.50;88.10;;;;;;4985177;28;20977;-80
2022/07/05 08:35:31;;;;;;;2.90;1.53;;;23.60;91.00;;;;;;4989889;28;20635;-81
2022/07/05 08:37:57;;;;;;;2.17;1.47;;;23.70;90.70;;;;;;4991418;28;21270;-80
2022/07/05 08:40:29;;;;;;;2.10;1.53;;;23.80;90.60;;;;;;4988110;28;20647;-79
2022/07/05 08:42:58;;;;;;;1.60;1.37;;;23.90;89.60;;;;;;4984817;28;20635;-81
2022/07/05 08:45:27;;;;;;;3.37;1.37;;;24.00;89.40;;;;;;4988308;28;20627;-81
2022/07/05 08:47:56;;;;;;;4.50;1.40;;;24.10;87.40;;;;;;4987749;28;20672;-80
2022/07/05 08:50:23;;;;;;;1.43;1.27;;;24.10;85.20;;;;;;4985561;28;21192;-81
2022/07/05 08:52:51;;;;;;;3.00;1.47;;;24.10;86.60;;;;;;4988033;28;21396;-81
2022/07/05 08:55:18;;;;;;;1.40;1.27;;;24.20;87.30;;;;;;4984483;28;20643;-80
2022/07/05 08:57:45;;;;;;;3.00;1.07;;;24.20;86.70;;;;;;4987800;28;20632;-80
2022/07/05 09:00:13;;;;;;;4.40;1.57;;;24.20;86.90;;;;;;4987578;28;21013;-80
2022/07/05 09:02:41;;;;;;;3.83;1.50;;;24.40;87.70;;;;;;4987999;28;20655;-80
2022/07/05 09:05:12;;;;;;;1.60;1.30;;;24.50;85.00;;;;;;4987748;28;20612;-80
2022/07/05 09:07:41;;;;;;;2.63;1.13;;;24.50;81.60;;;;;;4969714;28;20659;-80
2022/07/05 09:10:12;;;;;;;4.13;1.13;;;24.60;84.20;;;;;;4987112;28;20680;-80
2022/07/05 09:12:39;;;;;;;1.10;1.00;;;24.60;82.20;;;;;;4987865;28;20797;-80
2022/07/05 09:15:07;;;;;;;3.13;0.90;;;24.60;83.20;;;;;;4986540;28;21022;-80
2022/07/05 09:17:34;;;;;;;5.13;1.17;;;24.80;84.00;;;;;;4986884;28;20719;-80
2022/07/05 09:20:11;;;;;;;2.87;1.53;;;24.80;80.30;;;;;;4987274;28;20736;-80
2022/07/05 09:22:47;;;;;;;1.20;1.10;;;24.90;80.40;;;;;;4983974;28;20656;-80
2022/07/05 09:25:16;;;;;;;1.53;1.03;;;25.10;79.70;;;;;;4987052;28;20687;-80
2022/07/05 09:27:49;;;;;;;3.33;1.33;;;25.10;80.70;;;;;;4985548;28;20644;-80
2022/07/05 09:30:30;;;;;;;1.37;1.13;;;25.20;79.50;;;;;;4986805;28;20743;-80
2022/07/05 09:33:05;;;;;;;1.13;0.97;;;25.30;80.70;;;;;;4987455;28;21072;-80
2022/07/05 09:35:34;;;;;;;1.27;0.80;;;25.40;78.10;;;;;;4982362;28;20632;-79
2022/07/05 09:38:03;;;;;;;2.87;1.10;;;25.50;79.40;;;;;;4986338;28;20632;-80
2022/07/05 09:40:31;;;;;;;4.60;0.97;;;25.60;76.40;;;;;;4984464;28;21310;-80
2022/07/05 09:43:13;;;;;;;5.03;1.10;;;25.60;73.90;;;;;;4984562;28;21701;-80
2022/07/05 09:45:40;;;;;;;1.20;1.10;;;25.70;72.80;;;;;;4984791;28;20588;-79
2022/07/05 09:48:08;;;;;;;2.47;1.40;;;25.70;73.00;;;;;;4986670;28;20735;-80
2022/07/05 09:50:37;;;;;;;1.60;1.50;;;25.70;71.60;;;;;;4986638;28;20762;-80
2022/07/05 09:53:04;;;;;;;4.33;1.17;;;25.70;70.70;;;;;;4985509;28;20990;-79
2022/07/05 09:55:31;;;;;;;3.83;1.30;;;25.80;72.90;;;;;;4986740;28;20662;-79
2022/07/05 09:57:58;;;;;;;1.47;0.73;;;25.90;71.30;;;;;;4985811;28;20636;-80
2022/07/05 10:00:25;;;;;;;5.80;1.13;;;26.00;73.50;;;;;;4986525;28;20653;-79
2022/07/05 10:02:53;;;;;;;2.97;1.30;;;26.10;70.20;;;;;;4984812;28;20666;-79
2022/07/05 10:05:23;;;;;;;2.97;0.80;;;26.10;70.10;;;;;;4985952;28;20645;-79
2022/07/05 10:07:53;;;;;;;1.30;1.20;;;26.10;69.30;;;;;;4986404;28;20632;-79
2022/07/05 10:10:22;;;;;;;1.10;0.90;;;26.20;68.40;;;;;;4986243;28;20681;-79
2022/07/05 10:12:51;;;;;;;5.90;1.10;;;26.20;66.00;;;;;;4986518;28;21250;-79
2022/07/05 10:15:21;;;;;;;2.70;0.97;;;26.20;66.80;;;;;;4985378;28;20628;-79
2022/07/05 10:17:57;;;;;;;1.63;0.83;;;26.30;68.60;;;;;;4985776;28;20633;-79
2022/07/05 10:20:30;;;;;;;1.00;0.83;;;26.50;64.80;;;;;;4985828;28;20648;-79
2022/07/05 10:22:58;;;;;;;1.33;1.00;;;26.60;65.40;;;;;;4985624;28;21090;-79
2022/07/05 10:25:29;;;;;;;1.40;0.70;;;26.70;62.60;;;;;;4986097;28;20662;-79
2022/07/05 10:27:56;;;;;;;1.63;0.90;;;26.70;60.30;;;;;;4985060;28;21023;-79
2022/07/05 10:30:24;;;;;;;1.63;1.07;;;26.70;60.40;;;;;;4986227;28;20692;-79
2022/07/05 10:32:51;;;;;;;1.67;1.03;;;26.80;60.50;;;;;;4985046;28;20637;-79
2022/07/05 10:35:21;;;;;;;1.27;0.93;;;27.00;59.80;;;;;;4983822;28;20976;-79
2022/07/05 10:37:49;;;;;;;1.50;1.10;;;27.10;60.10;;;;;;4986326;28;20647;-80
2022/07/05 10:40:19;;;;;;;1.10;1.00;;;27.20;60.30;;;;;;4984866;28;20664;-79
2022/07/05 10:42:49;;;;;;;1.63;1.23;;;27.40;58.80;;;;;;4984159;28;20671;-79
2022/07/05 10:45:30;;;;;;;1.50;1.03;;;27.40;58.10;;;;;;4985777;28;20652;-80
2022/07/05 10:48:16;;;;;;;2.17;1.00;;;27.40;57.20;;;;;;4985004;28;20630;-79
2022/07/05 10:50:51;;;;;;;2.90;1.27;;;27.40;57.50;;;;;;4984702;28;20688;-80
2022/07/05 10:53:21;;;;;;;0.97;0.87;;;27.30;56.20;;;;;;4984646;28;20664;-80
2022/07/05 10:55:51;;;;;;;1.47;0.70;;;27.50;56.30;;;;;;4985992;28;20743;-79
2022/07/05 10:58:22;;;;;;;1.07;0.80;;;27.80;56.60;;;;;;4984911;28;20623;-79
2022/07/05 11:01:05;;;;;;;1.97;1.07;;;28.00;56.30;;;;;;4985654;28;20651;-80
2022/07/05 11:03:36;;;;;;;2.80;1.10;;;28.30;54.10;;;;;;4982868;28;20672;-79
2022/07/05 11:06:05;;;;;;;2.10;1.20;;;28.40;52.80;;;;;;4984235;28;20628;-79
2022/07/05 11:08:33;;;;;;;2.10;0.70;;;28.50;51.90;;;;;;4984980;28;20636;-79
2022/07/05 11:11:12;;;;;;;1.00;0.90;;;28.60;51.50;;;;;;4986160;28;20759;-79
2022/07/05 11:13:40;;;;;;;3.40;0.80;;;28.60;51.10;;;;;;4981490;28;20663;-79
2022/07/05 11:16:23;;;;;;;1.70;1.00;;;28.80;52.00;;;;;;4985857;28;20641;-79
2022/07/05 11:18:51;;;;;;;2.53;0.90;;;29.00;51.70;;;;;;4983484;28;20715;-79
2022/07/05 11:21:19;;;;;;;4.10;1.10;;;29.30;50.80;;;;;;4983490;28;20648;-79
2022/07/05 11:23:46;;;;;;;2.63;1.17;;;29.30;50.10;;;;;;4985916;28;20633;-79
2022/07/05 11:26:17;;;;;;;3.00;1.13;;;29.20;49.80;;;;;;4985995;28;20617;-79
2022/07/05 11:28:45;;;;;;;2.20;0.80;;;29.00;49.20;;;;;;4984918;28;20970;-79
2022/07/05 11:31:13;;;;;;;1.10;0.90;;;29.00;49.20;;;;;;4985898;28;20692;-80
2022/07/05 11:33:43;;;;;;;2.47;0.73;;;29.30;50.90;;;;;;4983531;28;20633;-79
2022/07/05 11:36:25;;;;;;;1.00;0.80;;;29.50;49.90;;;;;;4986288;28;20691;-80
2022/07/05 11:39:08;;;;;;;1.70;0.63;;;29.90;49.40;;;;;;4985314;28;21290;-80
2022/07/05 11:41:38;;;;;;;1.23;1.00;;;30.30;47.90;;;;;;4978695;28;20644;-80
2022/07/05 11:44:07;;;;;;;6.20;1.47;;;30.60;47.30;;;;;;4985345;28;20680;-79
2022/07/05 11:46:34;;;;;;;1.13;0.80;;;31.00;47.70;;;;;;4986139;28;20652;-79
2022/07/05 11:49:01;;;;;;;1.83;1.37;;;31.20;45.30;;;;;;4985402;28;20635;-80
2022/07/05 11:51:28;;;;;;;1.03;0.73;;;31.30;44.60;;;;;;4985557;28;20684;-80
2022/07/05 11:53:55;;;;;;;1.17;0.80;;;31.30;44.20;;;;;;4985734;28;21026;-79
2022/07/05 11:56:21;;;;;;;3.17;1.10;;;31.30;43.80;;;;;;4985902;28;20636;-79
2022/07/05 11:58:50;;;;;;;2.80;1.27;;;31.30;44.00;;;;;;4984489;28;20995;-80
2022/07/05 12:01:16;;;;;;;2.17;1.00;;;31.70;42.80;;;;;;4985711;28;21035;-80
2022/07/05 12:03:55;;;;;;;1.73;0.97;;;31.90;41.90;;;;;;4987022;28;20651;-80
2022/07/05 12:06:23;;;;;;;3.13;1.10;;;32.30;43.10;;;;;;4989307;28;20636;-79
2022/07/05 12:09:02;;;;;;;1.00;0.77;;;32.40;42.80;;;;;;4988546;28;20727;-79
2022/07/05 12:14:22;;;;;;;3.07;1.20;;;33.20;41.90;;;;;;4985805;28;20599;-80
2022/07/05 12:16:50;;;;;;;1.20;0.80;;;33.50;40.80;;;;;;4991890;28;21178;-80
2022/07/05 12:19:25;;;;;;;4.30;1.00;;;33.70;40.90;;;;;;4988720;28;20624;-80
2022/07/05 12:21:54;;;;;;;1.77;1.00;;;33.90;40.20;;;;;;4989775;28;21046;-80
2022/07/05 12:24:21;;;;;;;2.00;1.13;;;34.00;39.20;;;;;;4988226;28;20649;-80
2022/07/05 12:26:50;;;;;;;4.00;1.43;;;33.90;39.20;;;;;;4987963;28;20627;-80
2022/07/05 12:29:21;;;;;;;2.57;1.10;;;33.90;38.20;;;;;;4985849;28;21003;-79
2022/07/05 12:32:03;;;;;;;3.63;1.10;;;33.70;37.20;;;;;;4988477;28;20670;-80
2022/07/05 12:34:30;;;;;;;1.53;0.90;;;33.60;37.50;;;;;;4986313;28;20671;-79
2022/07/05 12:36:58;;;;;;;1.50;1.10;;;33.60;36.70;;;;;;4987686;28;20631;-80
2022/07/05 12:39:25;;;;;;;2.00;1.00;;;33.70;38.60;;;;;;4988389;28;20627;-79
2022/07/05 12:41:51;;;;;;;5.17;1.50;;;33.90;37.60;;;;;;4986751;28;20635;-80
2022/07/05 12:44:22;;;;;;;1.70;1.00;;;33.60;37.80;;;;;;4986576;28;20635;-80
2022/07/05 12:46:50;;;;;;;1.70;1.07;;;33.60;38.60;;;;;;4987960;28;20679;-80
2022/07/05 12:49:18;;;;;;;1.50;1.10;;;34.00;39.40;;;;;;4986434;28;20695;-80
2022/07/05 12:51:46;;;;;;;2.37;0.93;;;34.40;38.00;;;;;;4987479;28;20668;-80
2022/07/05 13:00:03;;;;;;;2.50;1.20;;;35.10;37.40;;;;;;4987000;28;21104;-80
2022/07/05 13:02:40;;;;;;;1.83;0.90;;;35.60;36.90;;;;;;4987800;28;20624;-81
2022/07/05 13:05:10;;;;;;;2.70;0.97;;;35.50;36.00;;;;;;4986295;28;20646;-80
2022/07/05 13:07:44;;;;;;;5.13;0.80;;;35.50;36.10;;;;;;4987578;28;20659;-80